Westhoff, Texas
Current Conditions -  °F | °C
As of 9:35 AM on Friday 24 Oct 2014 (Local Time) from KT20 Reporting Station
Clear Clear  
Wind Chill: 67°   Ceiling: Unl
Heat Index: 67°   Visibility: 10mi
Dew Point: 58°   Wind: 0mph
Humidity: 74%   Direction: NA
Pressure: 30.17"   Gusts: NA
Location:  29.2°N, 97.47°W
Report Text: KT20 241435Z AUTO 00000KT 10SM CLR 20/15 A3017 RMK AO2 T01950147
Loading
Personal Weather Stations






























Interactive Weather Map
Tropical Storm Tracking
New forecast layout! Learn more

10-Day Weather Forecast

Advertisements
Track Severe Weather on mobile